Tiempo atmosférico en la estación meteorológica de Tarazona, Zaragoza (475 m.)



Fecha
DESCASC
Temp. máxima en grados centígrados (hora)
DESCASC
Temp. mínima en grados centígrados (hora)
DESCASC
Temp. media en grados centígrados
DESCASC
Racha de viento máxima en m/sg (hora)
DESCASC
Velocidad máxima media en intervalos de 10 minutos(hora)
DESCASC
Precipitaciones diarias en mm
DESCASC
Precipitaciones de 00:00 a 06:00 en mm
DESCASC
Precipitaciones de 06:00 a 12:00 en mm
DESCASC
Precipitaciones de 12:00 a 18:00 en mm
DESCASC
Precipitaciones de 18:00 a 24:00 en mm
DESCASC
23-06-2019 34.3 (18:10) 16.7 (07:10) 25.5 11.39 (21:40) 5.83 (21:40) 0 0 0 0 0
22-06-2019 29.3 (17:50) 10.4 (06:30) 19.8 7.5 (13:40) 4.44 (16:10) 0 0 0 0 0
21-06-2019 22.2 (18:10) 14.5 (05:50) 18.4 11.39 (15:50) 5.83 (17:10) 6 5.8 0.2 0 0
20-06-2019 24.4 (15:30) 15 (00:00) 19.7 10.83 (19:50) 6.11 (19:40) 4.6 0 0 0.4 4.2
19-06-2019 -- (--) -- (--) -- -- (--) -- (--) -- -- -- -- 0.6
18-06-2019 -- (--) -- (--) -- -- (--) -- (--) -- 0 0 0 --
17-06-2019 32 (17:50) 13.5 (00:00) 22.8 11.39 (18:00) 6.94 (18:00) 0 0 0 0 0
16-06-2019 28.2 (17:20) 9.5 (00:00) 18.9 8.33 (15:40) 4.17 (15:30) 0 0 0 0 0
15-06-2019 23.5 (16:30) 10.8 (00:00) 17.2 11.39 (02:40) 4.72 (18:50) 0 0 0 0 0
14-06-2019 27.8 (18:40) 12 (00:00) 19.9 10.83 (22:10) 5.56 (22:10) 0 0 0 0 0
13-06-2019 25.9 (17:40) 8.5 (00:00) 17.2 15 (14:00) 7.5 (14:30) 0 0 0 0 0
12-06-2019 21.1 (19:30) 6.2 (00:00) 13.7 8.33 (15:20) 5 (18:20) 0 0 0 0 0
11-06-2019 17.5 (16:40) 8.7 (00:00) 13.1 11.94 (14:40) 6.39 (15:20) 1.8 0.6 1.2 0 0
10-06-2019 19.5 (17:40) 12.1 (00:00) 15.8 12.22 (19:50) 6.67 (16:00) 0.2 0 0 0 0.2
09-06-2019 27.2 (17:10) 13.7 (00:00) 20.5 15 (19:50) 7.5 (20:00) 0 0 0 0 0
08-06-2019 24.5 (18:40) 7.2 (00:00) 15.8 9.17 (19:00) 5 (19:00) 0 0 0 0 0
07-06-2019 20.8 (19:30) 11.8 (00:00) 16.3 14.17 (10:10) 7.5 (11:20) 0 0 0 0 0
06-06-2019 24.9 (20:10) 8.3 (00:00) 16.6 13.61 (18:30) 6.94 (18:40) 0 0 0 0 0
05-06-2019 16.8 (17:20) 10.8 (00:00) 13.8 10.56 (16:10) 5.56 (16:20) 11.6 2.4 7.2 2 0
04-06-2019 32.5 (15:40) 14.4 (00:00) 23.4 13.89 (19:40) 7.5 (14:30) 0 0 0 0 0
03-06-2019 -- (--) -- (--) -- -- (--) -- (--) -- -- -- 0 0
02-06-2019 -- (--) -- (--) -- -- (--) -- (--) -- 0 0 0 --
01-06-2019 30.6 (18:30) 12.1 (00:00) 21.4 7.5 (16:20) 4.17 (14:00) 0 0 0 0 0
31-05-2019 28.1 (18:50) 12.7 (00:00) 20.4 5.28 (15:40) 3.06 (05:30) 0 0 0 0 0
30-05-2019 28.3 (17:50) 11 (00:00) 19.6 10.56 (16:00) 5 (16:30) 0 0 0 0 0
29-05-2019 19.2 (18:30) 10 (00:00) 14.6 13.06 (16:30) 7.5 (11:10) 0 0 0 0 0
28-05-2019 17 (15:20) 10 (00:00) 13.5 16.39 (17:40) 8.33 (18:50) 0 0 0 0 0
27-05-2019 21.5 (17:10) 8.7 (00:00) 15.1 16.39 (17:40) 8.33 (17:30) 0 0 0 0 0

Gráficas

Temp. máximas Temp. mínimas Temp. medias Precipitaciones Rachas de viento máximas Velocidades máximas media en intervalos de 10 minutos

Datos horarios

Fecha y hora oficial Temperatura (ºC) Velocidad del viento (km/h) Dirección del viento Racha (km/h) Dirección de racha Precipitación (mm) Presión (hPa) Tendencia (hPa) Humedad (%)
2019-06-25 23:00:00 29.1 11 Sudeste 19 Sudeste -- -- -- 42
2019-06-25 22:00:00 30.6 10 Sudeste 22 Sudeste 0 -- -- 41
2019-06-25 21:00:00 32.1 12 Sudeste 34 Sudeste 0 -- -- 39
2019-06-25 20:00:00 33.1 14 Sudeste 34 Sudeste 0 -- -- 35
2019-06-25 19:00:00 33.3 14 Sudeste 33 Sudeste 0 -- -- 34
2019-06-25 18:00:00 32.8 14 Sudeste 30 Este 0 -- -- 35
2019-06-25 17:00:00 32.7 19 Este 33 Este 0 -- -- 35
2019-06-25 16:00:00 32.4 18 Este 37 Este 0 -- -- 35
2019-06-25 15:00:00 30.7 20 Este 34 Este 0 -- -- 40
2019-06-25 14:00:00 30.2 10 Sudeste 29 Este 0 -- -- 40
2019-06-25 13:00:00 28.4 9 Nordeste 22 Este 0 -- -- 44
2019-06-25 12:00:00 26.5 7 Norte 18 Este 0 -- -- 48
2019-06-25 11:00:00 25 8 Este 15 Nordeste 0 -- -- 52
2019-06-25 10:00:00 24.1 3 Este 14 Sur 0 -- -- 52
2019-06-25 09:00:00 22.2 5 Sur 11 Sudeste 0 -- -- 59
2019-06-25 08:00:00 20.2 0 Calma 5 Oeste 0 -- -- 63
2019-06-25 07:00:00 17.7 3 Sudoeste 6 Oeste 0 -- -- 69
2019-06-25 06:00:00 17.4 4 Oeste 9 Sudoeste 0 -- -- 69
2019-06-25 05:00:00 18 0 Calma 10 Noroeste 0 -- -- 67
2019-06-25 04:00:00 19.1 4 Oeste 9 Oeste 0 -- -- 62
2019-06-25 03:00:00 20.9 5 Noroeste 9 Noroeste 0 -- -- 55
2019-06-25 02:00:00 22.4 6 Noroeste 15 Sudeste 0 -- -- 49
2019-06-25 01:00:00 23.9 6 Este 18 Sudeste 0 -- -- 42
2019-06-25 00:00:00 25.6 6 Sudeste 19 Este 0 -- -- 34
2019-06-24 23:00:00 27.1 8 Sudeste 17 Sudeste 0 -- -- 31
2019-06-24 22:00:00 28.1 8 Este 28 Sudeste 0 -- -- 29
2019-06-24 21:00:00 29.6 11 Sudeste 38 Sudeste 0 -- -- 28
2019-06-24 20:00:00 30.7 15 Sudeste 42 Sudeste 0 -- -- 28
2019-06-24 19:00:00 31.2 23 Sudeste 47 Este 0 -- -- 27
2019-06-24 18:00:00 32 19 Sudeste 46 Sudeste 0 -- -- 25
2019-06-24 17:00:00 31.4 19 Sudeste 37 Este 0 -- -- 26
2019-06-24 16:00:00 30.3 14 Sudeste 46 Sudeste 0 -- -- 31
2019-06-24 15:00:00 30 22 Este 36 Este 0 -- -- 32
2019-06-24 14:00:00 29.2 16 Sudeste 41 Este 0 -- -- 33
2019-06-24 13:00:00 28.6 18 Sudeste 39 Este 0 -- -- 35
2019-06-24 12:00:00 26.7 19 Sudeste 41 Sudeste 0 -- -- 39
2019-06-24 11:00:00 25.2 14 Sudeste 28 Sudeste 0 -- -- 42
2019-06-24 10:00:00 23.2 9 Sudeste 23 Sudeste 0 -- -- 48
2019-06-24 09:00:00 20.9 3 Sur 11 Sudoeste 0 -- -- 53
2019-06-24 08:00:00 19.5 5 Sudoeste 14 Sudoeste 0 -- -- 59
2019-06-24 07:00:00 19 5 Sudoeste 11 Sudoeste 0 -- -- 59
2019-06-24 06:00:00 18.9 2 Sur 9 Oeste 0 -- -- 59
2019-06-24 05:00:00 18.7 8 Oeste 10 Oeste 0 -- -- 65
2019-06-24 04:00:00 22.2 0 Calma 18 Sudeste 0 -- -- 49
2019-06-24 03:00:00 23.4 11 Sur 22 Sudeste 0 -- -- 44
2019-06-24 02:00:00 24.3 13 Sur 21 Sudeste 0 -- -- 42
2019-06-24 01:00:00 25.3 6 Sur 15 Sudeste 0 -- -- 44
2019-06-24 00:00:00 26.9 5 Norte 18 Sur 0 -- -- 40
2019-06-23 23:00:00 28.9 13 Sur 27 Sudeste 0 -- -- 34
2019-06-23 22:00:00 30.4 16 Sur 41 Sudeste 0 -- -- 33
2019-06-23 21:00:00 31.9 13 Sudeste 26 Sudeste 0 -- -- 32
2019-06-23 20:00:00 32.7 10 Sudeste 30 Sudeste 0 -- -- 29
2019-06-23 19:00:00 33.4 11 Sudeste 31 Este 0 -- -- 29
2019-06-23 18:00:00 34.1 17 Este 33 Este 0 -- -- 28
2019-06-23 17:00:00 33.2 17 Este 37 Este 0 -- -- 29
2019-06-23 16:00:00 32.7 14 Este 31 Este 0 -- -- 31
2019-06-23 15:00:00 31.7 15 Este 31 Este 0 -- -- 32
2019-06-23 14:00:00 30.7 14 Este 32 Nordeste 0 -- -- 36
2019-06-23 13:00:00 28.6 10 Nordeste 22 Nordeste 0 -- -- 44
2019-06-23 12:00:00 27.6 10 Este 18 Este 0 -- -- 47
2019-06-23 11:00:00 25.5 5 Este 16 Este 0 -- -- 52
2019-06-23 10:00:00 23.7 7 Este 16 Este 0 -- -- 58
2019-06-23 09:00:00 21.3 4 Nordeste 7 Norte 0 -- -- 65
2019-06-23 08:00:00 18.3 3 Noroeste 5 Norte 0 -- -- 77
2019-06-23 07:00:00 16.8 3 Oeste 13 Oeste 0 -- -- 80
2019-06-23 06:00:00 17.4 9 Oeste 12 Oeste 0 -- -- 78
2019-06-23 05:00:00 20.1 7 Sur 18 Sur 0 -- -- 68
2019-06-23 04:00:00 20.5 2 Sudoeste 13 Sur 0 -- -- 66
2019-06-23 03:00:00 21.3 4 Noroeste 13 Este 0 -- -- 59
2019-06-23 02:00:00 20.8 5 Noroeste 10 Oeste 0 -- -- 58
2019-06-23 01:00:00 21.4 3 Noroeste 8 Este 0 -- -- 54
2019-06-23 00:00:00 22.5 7 Este 14 Este 0 -- -- 50
2019-06-22 23:00:00 23.2 4 Noroeste 6 Oeste 0 -- -- 51
2019-06-22 22:00:00 25.6 4 Oeste 8 Oeste 0 -- -- 44
2019-06-22 21:00:00 27.8 7 Sudeste 19 Sudeste 0 -- -- 37
2019-06-22 20:00:00 28.9 12 Sudeste 23 Sudeste 0 -- -- 34
2019-06-22 19:00:00 29 8 Sudeste 25 Este 0 -- -- 36
2019-06-22 18:00:00 29.1 12 Sudeste 25 Este 0 -- -- 35
2019-06-22 17:00:00 28.6 15 Este 27 Este 0 -- -- 37
2019-06-22 16:00:00 28 12 Este 26 Sudeste 0 -- -- 37
2019-06-22 15:00:00 26.7 9 Sudeste 25 Nordeste 0 -- -- 42
2019-06-22 14:00:00 24.6 12 Nordeste 27 Este 0 -- -- 45
2019-06-22 13:00:00 22.6 8 Este 19 Este 0 -- -- 51
2019-06-22 12:00:00 20 9 Nordeste 17 Nordeste 0 -- -- 59
2019-06-22 11:00:00 17.9 6 Nordeste 12 Norte 0 -- -- 65
2019-06-22 10:00:00 16.3 6 Nordeste 15 Nordeste 0 -- -- 72
2019-06-22 09:00:00 15 8 Este 12 Este 0 -- -- 75
2019-06-22 08:00:00 12.4 4 Sur 6 Sur 0 -- -- 84
2019-06-22 07:00:00 10.5 2 Oeste 6 Oeste 0 -- -- 89
2019-06-22 06:00:00 10.9 3 Oeste 6 Sudoeste 0 -- -- 87
2019-06-22 05:00:00 11.6 2 Norte 6 Oeste 0 -- -- 85
2019-06-22 04:00:00 12.5 2 Oeste 14 Sudoeste 0 -- -- 82
2019-06-22 03:00:00 13 7 Oeste 15 Oeste 0 -- -- 80
2019-06-22 02:00:00 13.1 7 Oeste 13 Sudoeste 0 -- -- 79
2019-06-22 01:00:00 13.7 5 Oeste 13 Oeste 0 -- -- 78
2019-06-22 00:00:00 15 6 Noroeste 23 Noroeste 0 -- -- 71
2019-06-21 23:00:00 16 9 Noroeste 25 Norte 0 -- -- 68
2019-06-21 22:00:00 17.2 9 Norte 22 Norte 0 -- -- 64
2019-06-21 21:00:00 19.4 13 Norte 26 Norte 0 -- -- 57
2019-06-21 20:00:00 20.8 12 Norte 31 Noroeste 0 -- -- 54
2019-06-21 19:00:00 22 18 Norte 36 Norte 0 -- -- 48
2019-06-21 18:00:00 21.9 18 Norte 39 Norte 0 -- -- 50
2019-06-21 17:00:00 21.4 17 Norte 39 Norte 0 -- -- 54
2019-06-21 16:00:00 21.5 18 Norte 41 Norte 0 -- -- 54
2019-06-21 15:00:00 20.5 16 Norte 38 Norte 0 -- -- 58
2019-06-21 14:00:00 20.4 16 Norte 35 Norte 0 -- -- 58
2019-06-21 13:00:00 18.9 17 Norte 30 Norte 0 -- -- 65
2019-06-21 12:00:00 17.9 13 Noroeste 28 Noroeste 0 -- -- 69
2019-06-21 11:00:00 17 13 Norte 26 Norte 0 -- -- 76
2019-06-21 10:00:00 16.2 10 Norte 27 Norte 0 -- -- 82
2019-06-21 09:00:00 15.6 10 Norte 24 Norte 0 -- -- 86
2019-06-21 08:00:00 14.9 4 Noroeste 7 Noroeste 0 -- -- 93
2019-06-21 07:00:00 14.5 0 Calma 7 Norte 0.2 -- -- 94
2019-06-21 06:00:00 14.5 5 Norte 11 Oeste 0 -- -- 93
2019-06-21 05:00:00 14.6 5 Oeste 14 Oeste 1.2 -- -- 92
2019-06-21 04:00:00 14.8 4 Oeste 17 Oeste 3.2 -- -- 92
2019-06-21 03:00:00 15.1 9 Noroeste 16 Noroeste 1.4 -- -- 88
2019-06-21 02:00:00 15.4 9 Oeste 14 Oeste 0 -- -- 89
2019-06-21 01:00:00 15.3 8 Noroeste 21 Noroeste 0 -- -- 87
2019-06-21 00:00:00 15 8 Noroeste 20 Norte 0.2 -- -- 90
2019-06-20 23:00:00 15.3 4 Norte 24 Noroeste 3.6 -- -- 90
2019-06-20 22:00:00 16.4 11 Norte 28 Noroeste 0.4 -- -- 82
2019-06-20 21:00:00 17.2 14 Noroeste 32 Norte 0 -- -- 81
2019-06-20 20:00:00 18.7 14 Norte 39 Norte 0 -- -- 71
2019-06-20 19:00:00 20.8 20 Norte 38 Norte 0 -- -- 61
2019-06-20 18:00:00 21.2 18 Norte 33 Norte 0.2 -- -- 65
2019-06-20 17:00:00 22 18 Norte 35 Norte 0.2 -- -- 61
2019-06-20 16:00:00 23.9 14 Norte 28 Norte 0 -- -- 50
2019-06-20 15:00:00 23.5 11 Norte 27 Norte 0 -- -- 51
2019-06-20 14:00:00 23 14 Norte 36 Norte 0 -- -- 53
2019-06-20 13:00:00 22.2 15 Norte 28 Norte 0 -- -- 55
2019-06-20 12:00:00 21.4 13 Norte 26 Norte 0 -- -- 59
2019-06-20 11:00:00 20.5 12 Norte 24 Noroeste 0 -- -- 61
2019-06-20 10:00:00 19 11 Norte 23 Norte 0 -- -- 67
2019-06-20 09:00:00 17.8 7 Noroeste 17 Noroeste 0 -- -- 73
2019-06-20 08:00:00 16.2 5 Oeste 10 Oeste 0 -- -- 83
2019-06-20 07:00:00 15.5 3 Oeste 13 Oeste 0 -- -- 85
2019-06-20 06:00:00 15.5 0 Calma 14 Noroeste 0 -- -- 84
2019-06-20 05:00:00 15.5 4 Norte 9 Norte 0 -- -- 84
2019-06-20 04:00:00 15.9 4 Oeste 16 Norte 0 -- -- 83
2019-06-20 03:00:00 16.7 7 Noroeste 17 Noroeste 0 -- -- 80
2019-06-20 02:00:00 17.7 13 Norte 24 Noroeste 0 -- -- 75
2019-06-20 01:00:00 19.1 12 Noroeste 24 Norte 0 -- -- 71
2019-06-20 00:00:00 19.3 4 Oeste 24 Sudoeste 0 -- -- 76
2019-06-19 23:00:00 19.8 8 Oeste 20 Oeste 0.4 -- -- 73
2019-06-19 22:00:00 20.5 6 Oeste 26 Noroeste 0.2 -- -- 69
2019-06-19 21:00:00 25.5 12 Noroeste 21 Noroeste 0 -- -- 43
2019-06-19 20:00:00 26.8 5 Norte 17 Este 0 -- -- 38
2019-06-19 19:00:00 27 12 Nordeste 22 Nordeste 0 -- -- 37
2019-06-19 18:00:00 27.4 12 Nordeste 24 Nordeste 0 -- -- 37
2019-06-19 17:00:00 30 9 Noroeste 22 Noroeste 0 -- -- 32
2019-06-19 16:00:00 29.3 6 Sur 22 Noroeste 0 -- -- 31
2019-06-19 15:00:00 28.8 10 Noroeste -- -- -- -- -- 32
2019-06-19 14:00:00 28.1 12 Oeste 24 Noroeste 0 -- -- 35
2019-06-19 13:00:00 27.5 17 Noroeste -- -- -- -- -- 35
2019-06-19 12:00:00 -- -- -- -- -- -- -- -- --
2019-06-19 11:00:00 -- -- -- -- -- -- -- -- --
2019-06-19 10:00:00 -- -- -- -- -- -- -- -- --
2019-06-19 09:00:00 -- -- -- -- -- -- -- -- --
2019-06-19 08:00:00 -- -- -- -- -- -- -- -- --
2019-06-19 07:00:00 -- -- -- -- -- -- -- -- --
2019-06-19 06:00:00 -- -- -- -- -- -- -- -- --
2019-06-19 05:00:00 -- -- -- -- -- -- -- -- --
2019-06-19 04:00:00 -- -- -- -- -- -- -- -- --
2019-06-19 03:00:00 -- -- -- -- -- -- -- -- --
2019-06-19 02:00:00 -- -- -- -- -- -- -- -- --
2019-06-19 01:00:00 -- -- -- -- -- -- -- -- --
2019-06-19 00:00:00 -- -- -- -- -- -- -- -- --
2019-06-18 23:00:00 -- -- -- -- -- -- -- -- --
2019-06-18 22:00:00 -- -- -- -- -- -- -- -- --
2019-06-18 21:00:00 -- -- -- -- -- -- -- -- --
2019-06-18 20:00:00 -- -- -- -- -- -- -- -- --
2019-06-18 19:00:00 32.7 12 Sudoeste 40 Sudoeste 0 -- -- 18
2019-06-18 18:00:00 32.9 26 Sudoeste 41 Sudoeste 0 -- -- 17
2019-06-18 17:00:00 32.3 13 Sudoeste 40 Sudoeste 0 -- -- 19
2019-06-18 16:00:00 31.5 15 Sur 35 Sudoeste 0 -- -- 20
2019-06-18 15:00:00 32.9 23 Sur 42 Sur 0 -- -- 20
2019-06-18 14:00:00 32.1 19 Sudoeste 33 Sur 0 -- -- 22
2019-06-18 13:00:00 29.4 13 Este 20 Este 0 -- -- 30
2019-06-18 12:00:00 27.7 8 Este 16 Sudeste 0 -- -- 34
2019-06-18 11:00:00 24.4 4 Nordeste 13 Nordeste 0 -- -- 39
2019-06-18 10:00:00 23.5 4 Este 17 Sudoeste 0 -- -- 43
2019-06-18 09:00:00 21 5 Oeste 14 Sudoeste 0 -- -- 47
2019-06-18 08:00:00 18.7 8 Sudoeste 15 Sudoeste 0 -- -- 51
2019-06-18 07:00:00 19 4 Oeste 19 Sur 0 -- -- 52
2019-06-18 06:00:00 19.8 4 Sur 21 Sudeste 0 -- -- 50
2019-06-18 05:00:00 20.8 10 Sudoeste 15 Sudoeste 0 -- -- 50
2019-06-18 04:00:00 21.1 6 Sudoeste 19 Sur 0 -- -- 50
2019-06-18 03:00:00 21.8 8 Sudoeste 21 Oeste 0 -- -- 49
2019-06-18 02:00:00 22.1 2 Norte 13 Noroeste 0 -- -- 45
2019-06-18 01:00:00 24.1 2 Sudoeste 18 Sur 0 -- -- 41
2019-06-18 00:00:00 23.6 4 Sur 8 Sudeste 0 -- -- 37
2019-06-17 23:00:00 26.2 6 Sudoeste 17 Sur 0 -- -- 30
2019-06-17 22:00:00 28.5 10 Sur 22 Sudeste 0 -- -- 26
2019-06-17 21:00:00 29.6 13 Sudeste 22 Este 0 -- -- 24
2019-06-17 20:00:00 30 9 Sudeste 34 Este 0 -- -- 25
2019-06-17 19:00:00 30.9 21 Este 38 Este 0 -- -- 24
2019-06-17 18:00:00 31.6 25 Este 41 Este 0 -- -- 20
2019-06-17 17:00:00 31.5 21 Este 40 Este 0 -- -- 21
2019-06-17 16:00:00 31 18 Este 40 Este 0 -- -- 24
2019-06-17 15:00:00 30.5 16 Este 31 Este 0 -- -- 29
2019-06-17 14:00:00 29.1 15 Nordeste 27 Este 0 -- -- 34
2019-06-17 13:00:00 27 8 Nordeste 19 Nordeste 0 -- -- 39
2019-06-17 12:00:00 25 7 Nordeste 16 Nordeste 0 -- -- 42
2019-06-17 11:00:00 22.9 5 Nordeste 14 Nordeste 0 -- -- 47
2019-06-17 10:00:00 21.5 6 Este 12 Nordeste 0 -- -- 50
2019-06-17 09:00:00 19.5 5 Norte 8 Norte 0 -- -- 52
2019-06-17 08:00:00 15.5 2 Oeste 9 Oeste 0 -- -- 62
2019-06-17 07:00:00 13.5 5 Oeste 9 Oeste 0 -- -- 65
2019-06-17 06:00:00 14 2 Oeste 12 Oeste 0 -- -- 62
2019-06-17 05:00:00 14.6 7 Oeste 10 Oeste 0 -- -- 60
2019-06-17 04:00:00 15.3 5 Oeste 14 Oeste 0 -- -- 56
2019-06-17 03:00:00 15.9 9 Oeste 14 Oeste 0 -- -- 55
2019-06-17 02:00:00 16.8 4 Oeste 10 Oeste 0 -- -- 53
2019-06-17 01:00:00 16.8 5 Oeste 11 Oeste 0 -- -- 55
2019-06-17 00:00:00 18.2 3 Sudeste 9 Este 0 -- -- 51
2019-06-16 23:00:00 19.6 3 Oeste 9 Oeste 0 -- -- 46
2019-06-16 22:00:00 21.9 2 Oeste 7 Oeste 0 -- -- 42
2019-06-16 21:00:00 26.1 0 Calma 13 Este 0 -- -- 29
2019-06-16 20:00:00 27 7 Sudeste 14 Sudeste 0 -- -- 26
2019-06-16 19:00:00 27.6 12 Este 25 Nordeste 0 -- -- 26
2019-06-16 18:00:00 28.1 10 Este 23 Nordeste 0 -- -- 26
2019-06-16 17:00:00 27.5 14 Este 25 Este 0 -- -- 28
2019-06-16 16:00:00 26.6 14 Este 30 Este 0 -- -- 30
2019-06-16 15:00:00 26.3 13 Este 23 Este 0 -- -- 32
2019-06-16 14:00:00 24.8 6 Este 25 Este 0 -- -- 35
2019-06-16 13:00:00 22.6 9 Este 18 Este 0 -- -- 39
2019-06-16 12:00:00 20.6 8 Nordeste 19 Este 0 -- -- 45
2019-06-16 11:00:00 18.4 5 Nordeste 13 Nordeste 0 -- -- 50
2019-06-16 10:00:00 16.7 4 Nordeste 9 Nordeste 0 -- -- 53
2019-06-16 09:00:00 15.6 5 Este 9 Este 0 -- -- 54
2019-06-16 08:00:00 12.7 0 Calma 5 Sudoeste 0 -- -- 65
2019-06-16 07:00:00 9.8 5 Oeste 10 Oeste 0 -- -- 73
2019-06-16 06:00:00 10.4 6 Sudoeste 14 Oeste 0 -- -- 71
2019-06-16 05:00:00 11.2 6 Oeste 16 Oeste 0 -- -- 68
2019-06-16 04:00:00 12 9 Oeste 17 Sudoeste 0 -- -- 66
2019-06-16 03:00:00 12.8 5 Oeste 14 Oeste 0 -- -- 63
2019-06-16 02:00:00 13.1 6 Oeste 15 Sudoeste 0 -- -- 63
2019-06-16 01:00:00 14.3 5 Oeste 10 Oeste 0 -- -- 59
2019-06-16 00:00:00 15.3 10 Oeste 18 Noroeste 0 -- -- 56
2019-06-15 23:00:00 16.3 12 Noroeste 17 Noroeste 0 -- -- 52
2019-06-15 22:00:00 18.1 8 Noroeste 26 Norte 0 -- -- 48
2019-06-15 21:00:00 20.2 12 Norte 30 Norte 0 -- -- 44
2019-06-15 20:00:00 21.9 12 Norte 30 Norte 0 -- -- 40
2019-06-15 19:00:00 22.4 15 Norte 36 Norte 0 -- -- 39
2019-06-15 18:00:00 22.9 14 Nordeste 32 Norte 0 -- -- 36
2019-06-15 17:00:00 23.4 15 Norte 31 Norte 0 -- -- 35
2019-06-15 16:00:00 22.8 12 Nordeste 28 Norte 0 -- -- 36
2019-06-15 15:00:00 22.4 12 Norte 29 Norte 0 -- -- 37
2019-06-15 14:00:00 21.5 10 Nordeste 28 Norte 0 -- -- 40
2019-06-15 13:00:00 20.4 17 Nordeste 33 Norte 0 -- -- 44
2019-06-15 12:00:00 19.4 14 Norte 28 Nordeste 0 -- -- 48
2019-06-15 11:00:00 17.7 10 Norte 20 Norte 0 -- -- 54
2019-06-15 10:00:00 16.1 12 Nordeste 20 Norte 0 -- -- 58
2019-06-15 09:00:00 15.2 11 Norte 25 Noroeste 0 -- -- 63
2019-06-15 08:00:00 13.1 8 Norte 18 Norte 0 -- -- 75
2019-06-15 07:00:00 10.8 3 Oeste 10 Oeste 0 -- -- 85
2019-06-15 06:00:00 11.5 7 Oeste 12 Oeste 0 -- -- 82
2019-06-15 05:00:00 13.2 4 Oeste 16 Noroeste 0 -- -- 76
2019-06-15 04:00:00 13.9 10 Noroeste 19 Noroeste 0 -- -- 73
2019-06-15 03:00:00 14.2 9 Noroeste 41 Noroeste 0 -- -- 75
2019-06-15 02:00:00 14.1 14 Noroeste 23 Noroeste 0 -- -- 77
2019-06-15 01:00:00 14.6 12 Norte 30 Norte 0 -- -- 75
2019-06-15 00:00:00 15.5 7 Nordeste 27 Norte 0 -- -- 73
2019-06-14 23:00:00 16.9 13 Norte 39 Norte 0 -- -- 68
2019-06-14 22:00:00 19.7 20 Norte 38 Norte 0 -- -- 59
2019-06-14 21:00:00 25.5 12 Sudoeste 32 Sudoeste 0 -- -- 21
2019-06-14 20:00:00 26.9 15 Sudoeste 36 Sudoeste 0 -- -- 18
2019-06-14 19:00:00 27.8 16 Sudoeste 35 Sudoeste 0 -- -- 19
2019-06-14 18:00:00 25.7 10 Nordeste 21 Sudeste 0 -- -- 43
2019-06-14 17:00:00 25.2 9 Nordeste 22 Nordeste 0 -- -- 45
2019-06-14 16:00:00 23.9 12 Nordeste 24 Este 0 -- -- 47
2019-06-14 15:00:00 22.4 12 Nordeste 24 Este 0 -- -- 50
2019-06-14 14:00:00 21.2 10 Este 17 Este 0 -- -- 56
2019-06-14 13:00:00 18.6 8 Este 15 Este 0 -- -- 59
2019-06-14 12:00:00 16.1 5 Este 10 Nordeste 0 -- -- 67
2019-06-14 11:00:00 15 2 Norte 9 Este 0 -- -- 69
2019-06-14 10:00:00 15.2 4 Norte 9 Este 0 -- -- 67
2019-06-14 09:00:00 14.2 3 Norte 8 Este 0 -- -- 72
2019-06-14 08:00:00 12.9 2 Nordeste 8 Oeste 0 -- -- 71
2019-06-14 07:00:00 12.2 0 Calma 8 Oeste 0 -- -- 64
2019-06-14 06:00:00 12.5 3 Oeste 6 Noroeste 0 -- -- 63
2019-06-14 05:00:00 13.3 0 Calma 9 Oeste 0 -- -- 54
2019-06-14 04:00:00 14.8 2 Sur 11 Este 0 -- -- 42
2019-06-14 03:00:00 16.1 6 Este 12 Sudeste 0 -- -- 33
2019-06-14 02:00:00 16.9 7 Noroeste 23 Sudeste 0 -- -- 42
2019-06-14 01:00:00 18 7 Sudeste 29 Sudeste 0 -- -- 40
2019-06-14 00:00:00 18.7 11 Sudeste 27 Sudeste 0 -- -- 47
2019-06-13 23:00:00 19.6 12 Sudeste 32 Sudeste 0 -- -- 60
2019-06-13 22:00:00 20.5 14 Este 23 Sudeste 0 -- -- 57
2019-06-13 21:00:00 22.4 12 Sudeste 42 Sudeste 0 -- -- 47
2019-06-13 20:00:00 24.5 18 Sudeste 41 Sudeste 0 -- -- 44
2019-06-13 19:00:00 25.1 21 Sudeste 45 Sudeste 0 -- -- 41
2019-06-13 18:00:00 25.6 24 Sudeste 47 Sudeste 0 -- -- 43
2019-06-13 17:00:00 25.6 23 Sudeste 46 Sudeste 0 -- -- 43
2019-06-13 16:00:00 25.2 24 Sudeste 51 Sur 0 -- -- 45
2019-06-13 15:00:00 24.1 23 Sudeste 49 Sudeste 0 -- -- 47
2019-06-13 14:00:00 23.2 26 Sudeste 54 Sudeste 0 -- -- 49
2019-06-13 13:00:00 21.7 18 Sudeste 37 Sudeste 0 -- -- 51
2019-06-13 12:00:00 20.5 12 Sudeste 30 Sudeste 0 -- -- 52
2019-06-13 11:00:00 17 5 Oeste 12 Oeste 0 -- -- 58
2019-06-13 10:00:00 14.9 5 Noroeste 11 Noroeste 0 -- -- 61
2019-06-13 09:00:00 12.7 4 Noroeste 9 Noroeste 0 -- -- 69
2019-06-13 08:00:00 10.4 6 Noroeste 13 Noroeste 0 -- -- 77
2019-06-13 07:00:00 8.7 10 Noroeste 14 Oeste 0 -- -- 81
2019-06-13 06:00:00 8.6 6 Oeste 10 Oeste 0 -- -- 81
2019-06-13 05:00:00 8.7 4 Oeste 9 Oeste 0 -- -- 80
2019-06-13 04:00:00 9.3 7 Oeste 10 Oeste 0 -- -- 78
2019-06-13 03:00:00 10.8 0 Calma 8 Norte 0 -- -- 72
2019-06-13 02:00:00 11.6 2 Noroeste 10 Noroeste 0 -- -- 65
2019-06-13 01:00:00 12.6 6 Noroeste 10 Noroeste 0 -- -- 59
2019-06-13 00:00:00 13.2 6 Noroeste 12 Sudeste 0 -- -- 57
2019-06-12 23:00:00 14.7 5 Oeste 14 Sur 0 -- -- 54
2019-06-12 22:00:00 18.1 5 Sur 12 Este 0 -- -- 44
2019-06-12 21:00:00 19.9 7 Sudeste 24 Sudeste 0 -- -- 38
2019-06-12 20:00:00 21 10 Este 22 Nordeste 0 -- -- 35
2019-06-12 19:00:00 20.7 12 Nordeste 28 Este 0 -- -- 35
2019-06-12 18:00:00 20.7 10 Nordeste 28 Nordeste 0 -- -- 35
2019-06-12 17:00:00 20.5 17 Nordeste 27 Nordeste 0 -- -- 37
2019-06-12 16:00:00 19.5 9 Nordeste 30 Sudeste 0 -- -- 38
2019-06-12 15:00:00 19.3 9 Sudeste 27 Este 0 -- -- 40
2019-06-12 14:00:00 18 14 Este 29 Este 0 -- -- 42
2019-06-12 13:00:00 16.8 7 Este 28 Este 0 -- -- 45
2019-06-12 12:00:00 16 14 Este 25 Nordeste 0 -- -- 46
2019-06-12 11:00:00 14.9 6 Nordeste 14 Sudeste 0 -- -- 48
2019-06-12 10:00:00 13.3 6 Nordeste 14 Este 0 -- -- 52
2019-06-12 09:00:00 11.8 2 Este 6 Sudeste 0 -- -- 60
2019-06-12 08:00:00 8.6 2 Sudoeste 4 Sudoeste 0 -- -- 80
2019-06-12 07:00:00 6.9 2 Sur 10 Oeste 0 -- -- 86
2019-06-12 06:00:00 7 4 Oeste 11 Oeste 0 -- -- 86
2019-06-12 05:00:00 6.4 5 Oeste 10 Noroeste 0 -- -- 87
2019-06-12 04:00:00 6.2 5 Oeste 13 Oeste 0 -- -- 86
2019-06-12 03:00:00 6.6 8 Oeste 10 Oeste 0 -- -- 85
2019-06-12 02:00:00 7.2 8 Oeste 12 Oeste 0 -- -- 82
2019-06-12 01:00:00 8.1 6 Oeste 15 Noroeste 0 -- -- 78
2019-06-12 00:00:00 8.7 10 Oeste 15 Oeste 0 -- -- 78
2019-06-11 23:00:00 10.5 7 Noroeste 11 Nordeste 0 -- -- 69
2019-06-11 22:00:00 12.4 5 Norte 37 Norte 0 -- -- 61
2019-06-11 21:00:00 13.8 13 Norte 39 Norte 0 -- -- 55
2019-06-11 20:00:00 14.1 15 Norte 37 Norte 0 -- -- 55
2019-06-11 19:00:00 15.7 16 Norte 40 Noroeste 0 -- -- 46
2019-06-11 18:00:00 16.4 19 Norte 43 Noroeste 0 -- -- 47
2019-06-11 17:00:00 17 17 Noroeste 41 Norte 0 -- -- 43
2019-06-11 16:00:00 16.9 17 Norte 40 Norte 0 -- -- 44
2019-06-11 15:00:00 16.5 18 Norte 43 Norte 0 -- -- 48
2019-06-11 14:00:00 14.4 19 Noroeste 35 Noroeste 0 -- -- 53
2019-06-11 13:00:00 14.2 19 Norte 36 Norte 0 -- -- 56
2019-06-11 12:00:00 12.6 16 Norte 31 Norte 0 -- -- 74
2019-06-11 11:00:00 11.7 10 Noroeste 19 Noroeste 0 -- -- 80
2019-06-11 10:00:00 10.6 5 Noroeste 13 Oeste 0.2 -- -- 86
2019-06-11 09:00:00 10 7 Oeste 13 Oeste 0.2 -- -- 87
2019-06-11 08:00:00 9.6 5 Oeste 13 Oeste 0.4 -- -- 89
2019-06-11 07:00:00 9.6 8 Oeste 12 Oeste 0.4 -- -- 88
2019-06-11 06:00:00 9.6 5 Noroeste 19 Noroeste 0.2 -- -- 86
2019-06-11 05:00:00 10.1 10 Noroeste 19 Noroeste 0 -- -- 81
2019-06-11 04:00:00 10.7 6 Noroeste 12 Noroeste 0 -- -- 78
2019-06-11 03:00:00 10.4 6 Oeste 12 Oeste 0.2 -- -- 82
2019-06-11 02:00:00 10.9 5 Oeste 13 Oeste 0.2 -- -- 81
2019-06-11 01:00:00 11.2 4 Oeste 18 Norte 0 -- -- 79
2019-06-11 00:00:00 12.1 9 Norte 22 Noroeste 0.2 -- -- 73
2019-06-10 23:00:00 13.4 10 Norte 24 Norte 0 -- -- 57
2019-06-10 22:00:00 13.8 9 Norte 30 Norte 0 -- -- 56
2019-06-10 21:00:00 14.4 19 Norte 41 Norte 0 -- -- 55
2019-06-10 20:00:00 17.3 21 Norte 44 Norte 0 -- -- 48
2019-06-10 19:00:00 18.2 15 Norte 39 Norte 0 -- -- 47
2019-06-10 18:00:00 19 18 Norte 44 Norte 0 -- -- 45
2019-06-10 17:00:00 18.8 23 Norte 39 Norte 0 -- -- 44
2019-06-10 16:00:00 18.7 24 Norte 43 Norte 0 -- -- 44
2019-06-10 15:00:00 17.7 21 Norte 40 Norte 0 -- -- 48
2019-06-10 14:00:00 17.1 19 Norte 40 Norte 0 -- -- 50
2019-06-10 13:00:00 16.7 16 Norte 37 Norte 0 -- -- 52
2019-06-10 12:00:00 15.3 19 Norte 38 Norte 0 -- -- 57
2019-06-10 11:00:00 14.1 17 Norte 34 Norte 0 -- -- 62
2019-06-10 10:00:00 12.7 20 Norte 35 Noroeste 0 -- -- 67
2019-06-10 09:00:00 12.9 18 Norte 30 Norte 0 -- -- 69
2019-06-10 08:00:00 12.5 15 Norte 36 Norte 0 -- -- 72
2019-06-10 07:00:00 12.6 16 Noroeste 30 Noroeste 0 -- -- 71
2019-06-10 06:00:00 12.7 12 Norte 31 Norte 0 -- -- 74
2019-06-10 05:00:00 13.1 15 Norte 30 Noroeste 0 -- -- 72
2019-06-10 04:00:00 13.4 17 Norte 33 Norte 0 -- -- 71
2019-06-10 03:00:00 13.8 12 Norte 32 Norte 0 -- -- 71
2019-06-10 02:00:00 14.1 14 Norte 37 Norte 0 -- -- 72
2019-06-10 01:00:00 14.6 18 Norte 35 Noroeste 0 -- -- 72
2019-06-10 00:00:00 14.9 16 Noroeste 39 Norte 0 -- -- 72
2019-06-09 23:00:00 15.3 12 Norte 37 Noroeste 0 -- -- 71
2019-06-09 22:00:00 15.4 11 Norte 36 Norte 0 -- -- 74
2019-06-09 21:00:00 18 16 Norte 44 Norte 0 -- -- 64
2019-06-09 20:00:00 20.5 27 Norte 54 Norte 0 -- -- 57
2019-06-09 19:00:00 24.7 25 Norte 44 Norte 0 -- -- 46
2019-06-09 18:00:00 26.8 15 Norte 31 Norte 0 -- -- 34
2019-06-09 17:00:00 27 9 Este 19 Nordeste 0 -- -- 32
2019-06-09 16:00:00 26 9 Norte 21 Nordeste 0 -- -- 35
2019-06-09 15:00:00 25.2 10 Nordeste 27 Nordeste 0 -- -- 38
2019-06-09 14:00:00 24.6 12 Nordeste 23 Este 0 -- -- 38
2019-06-09 13:00:00 23.1 8 Este 20 Nordeste 0 -- -- 39
2019-06-09 12:00:00 22.3 5 Este 12 Nordeste 0 -- -- 41
2019-06-09 11:00:00 20.1 4 Sudeste 13 Nordeste 0 -- -- 43
2019-06-09 10:00:00 18.6 6 Nordeste 9 Nordeste 0 -- -- 48
2019-06-09 09:00:00 16.6 3 Oeste 6 Oeste 0 -- -- 56
2019-06-09 08:00:00 14.4 3 Sudoeste 9 Sudoeste 0 -- -- 65
2019-06-09 07:00:00 13.9 4 Sudoeste 11 Oeste 0 -- -- 68
2019-06-09 06:00:00 14.2 5 Sudoeste 13 Sudoeste 0 -- -- 66
2019-06-09 05:00:00 15.8 9 Sur 14 Sur 0 -- -- 51
2019-06-09 04:00:00 15.4 0 Calma 7 Noroeste 0 -- -- 57
2019-06-09 03:00:00 16.2 4 Noroeste 9 Sudeste 0 -- -- 54
2019-06-09 02:00:00 17.4 0 Calma 17 Este 0 -- -- 49
2019-06-09 01:00:00 17.8 6 Sudeste 14 Sudeste 0 -- -- 49
2019-06-09 00:00:00 18.1 6 Este 21 Este 0 -- -- 48
2019-06-08 23:00:00 19.4 12 Sudeste 32 Sudeste 0 -- -- 46
2019-06-08 22:00:00 20.8 16 Sudeste 28 Sudeste 0 -- -- 43
2019-06-08 21:00:00 22.2 12 Sudeste 31 Sudeste 0 -- -- 41
2019-06-08 20:00:00 23.6 13 Sudeste 30 Sudeste 0 -- -- 39
2019-06-08 19:00:00 24.4 18 Este 33 Este 0 -- -- 38
2019-06-08 18:00:00 24.1 14 Sudeste 28 Sudeste 0 -- -- 37
2019-06-08 17:00:00 22.9 15 Sudeste 28 Sudeste 0 -- -- 38
2019-06-08 16:00:00 22.7 12 Sudeste 30 Este 0 -- -- 37
2019-06-08 15:00:00 22.4 13 Sudeste 32 Este 0 -- -- 37
2019-06-08 14:00:00 21.3 14 Este 30 Este 0 -- -- 38
2019-06-08 13:00:00 19.1 12 Nordeste 24 Nordeste 0 -- -- 44
2019-06-08 12:00:00 17.7 8 Este 17 Este 0 -- -- 49
2019-06-08 11:00:00 16 8 Este 14 Este 0 -- -- 52
2019-06-08 10:00:00 14.5 6 Nordeste 15 Nordeste 0 -- -- 55
2019-06-08 09:00:00 13 3 Norte 12 Nordeste 0 -- -- 59
2019-06-08 08:00:00 10 3 Sudoeste 12 Oeste 0 -- -- 75
2019-06-08 07:00:00 7.9 9 Oeste 14 Oeste 0 -- -- 80
2019-06-08 06:00:00 7.7 7 Oeste 13 Oeste 0 -- -- 81
2019-06-08 05:00:00 7.8 6 Oeste 10 Oeste 0 -- -- 81
2019-06-08 04:00:00 8.4 6 Oeste 14 Oeste 0 -- -- 79
2019-06-08 03:00:00 9.6 4 Sudoeste 9 Oeste 0 -- -- 72
2019-06-08 02:00:00 10.4 3 Sudoeste 16 Oeste 0 -- -- 69
2019-06-08 01:00:00 10.6 14 Noroeste 21 Noroeste 0 -- -- 70
2019-06-08 00:00:00 12.1 6 Oeste 15 Noroeste 0 -- -- 65
2019-06-07 23:00:00 14 5 Oeste 21 Norte 0 -- -- 59
2019-06-07 22:00:00 15.7 11 Norte 26 Norte 0 -- -- 54
2019-06-07 21:00:00 19.6 4 Norte 18 Norte 0 -- -- 35
2019-06-07 20:00:00 20.8 10 Norte 20 Noroeste 0 -- -- 33
2019-06-07 19:00:00 20 6 Norte 17 Nordeste 0 -- -- 36
2019-06-07 18:00:00 19.4 9 Este 22 Norte 0 -- -- 37
2019-06-07 17:00:00 20 6 Norte 19 Norte 0 -- -- 35
2019-06-07 16:00:00 19.8 9 Nordeste 21 Norte 0 -- -- 36
2019-06-07 15:00:00 18.6 9 Nordeste 43 Sudoeste 0 -- -- 38
2019-06-07 14:00:00 19.4 17 Oeste 45 Sudoeste 0 -- -- 35
2019-06-07 13:00:00 19.1 18 Oeste 45 Sudoeste 0 -- -- 37
2019-06-07 12:00:00 18 17 Oeste 42 Oeste 0 -- -- 43
2019-06-07 11:00:00 16.1 21 Oeste 51 Oeste 0 -- -- 45
2019-06-07 10:00:00 15.3 21 Oeste 49 Noroeste 0 -- -- 47
2019-06-07 09:00:00 14 22 Oeste 40 Oeste 0 -- -- 51
2019-06-07 08:00:00 12.3 2 Noroeste 21 Noroeste 0 -- -- 60
2019-06-07 07:00:00 12 7 Este 14 Nordeste 0 -- -- 65
2019-06-07 06:00:00 12.7 6 Oeste 29 Noroeste 0 -- -- 65
2019-06-07 05:00:00 13.7 17 Oeste 41 Oeste 0 -- -- 61
2019-06-07 04:00:00 18.3 8 Sudoeste 26 Sudoeste 0 -- -- 46
2019-06-07 03:00:00 17.7 6 Sudoeste 23 Sudeste 0 -- -- 55
2019-06-07 02:00:00 18.9 15 Sur 35 Sudeste 0 -- -- 51
2019-06-07 01:00:00 16.5 6 Sur 15 Sur 0 -- -- 57
2019-06-07 00:00:00 17.6 5 Noroeste 15 Oeste 0 -- -- 54
2019-06-06 23:00:00 19.3 6 Sudoeste 28 Sudeste 0 -- -- 49
2019-06-06 22:00:00 21.5 13 Sudeste 24 Sur 0 -- -- 41
2019-06-06 21:00:00 24.3 14 Sur 36 Sudoeste 0 -- -- 27
2019-06-06 20:00:00 24.8 23 Sur 44 Sudoeste 0 -- -- 25
2019-06-06 19:00:00 24.3 19 Sudoeste 49 Sudoeste 0 -- -- 26
2019-06-06 18:00:00 24.2 19 Sudoeste 41 Sur 0 -- -- 27
2019-06-06 17:00:00 23.3 13 Sur 33 Sudeste 0 -- -- 29
2019-06-06 16:00:00 24.2 21 Sur 40 Sur 0 -- -- 27
2019-06-06 15:00:00 22 15 Sudeste 35 Este 0 -- -- 44
2019-06-06 14:00:00 20.7 17 Sudeste 35 Sudeste 0 -- -- 41
2019-06-06 13:00:00 20 13 Sur 28 Sur 0 -- -- 46
2019-06-06 12:00:00 17.5 13 Este 26 Este 0 -- -- 58
2019-06-06 11:00:00 15.3 12 Sur 23 Sudeste 0 -- -- 61
2019-06-06 10:00:00 14.1 5 Este 13 Este 0 -- -- 66
2019-06-06 09:00:00 12.1 3 Este 8 Este 0 -- -- 76
2019-06-06 08:00:00 9.6 2 Oeste 7 Oeste 0 -- -- 86
2019-06-06 07:00:00 8.3 3 Oeste 9 Oeste 0 -- -- 88
2019-06-06 06:00:00 8.7 4 Sudoeste 10 Oeste 0 -- -- 87
2019-06-06 05:00:00 8.6 8 Oeste 14 Oeste 0 -- -- 88
2019-06-06 04:00:00 8.5 4 Oeste 8 Sudoeste 0 -- -- 88
2019-06-06 03:00:00 9.1 6 Oeste 12 Oeste 0 -- -- 86
2019-06-06 02:00:00 10.3 4 Oeste 10 Sudoeste 0 -- -- 79
2019-06-06 01:00:00 11.2 6 Oeste 13 Oeste 0 -- -- 74
2019-06-06 00:00:00 11.4 7 Oeste 11 Oeste 0 -- -- 76
2019-06-05 23:00:00 12.1 6 Noroeste 14 Noroeste 0 -- -- 75
2019-06-05 22:00:00 13.1 5 Noroeste 13 Norte 0 -- -- 73
2019-06-05 21:00:00 14 5 Norte 22 Nordeste 0 -- -- 70
2019-06-05 20:00:00 15.7 11 Norte 23 Norte 0 -- -- 58
2019-06-05 19:00:00 16.4 11 Norte 30 Noroeste 0 -- -- 57
2019-06-05 18:00:00 16.1 17 Norte 36 Norte 0 -- -- 55
2019-06-05 17:00:00 16 15 Noroeste 38 Norte 0 -- -- 62
2019-06-05 16:00:00 16.2 17 Norte 37 Norte 0 -- -- 59
2019-06-05 15:00:00 15.1 13 Norte 27 Noroeste 0 -- -- 68
2019-06-05 14:00:00 13.5 6 Oeste 17 Sudoeste 1.2 -- -- 81
2019-06-05 13:00:00 11.3 15 Oeste 35 Noroeste 0.8 -- -- 83
2019-06-05 12:00:00 12.3 15 Noroeste 29 Noroeste 0 -- -- 79
2019-06-05 11:00:00 11.6 11 Noroeste 32 Noroeste 0.8 -- -- 87
2019-06-05 10:00:00 12.1 19 Noroeste 31 Noroeste 2.8 -- -- 87
2019-06-05 09:00:00 11.7 6 Noroeste 27 Noroeste 2.8 -- -- 91
2019-06-05 08:00:00 12 9 Noroeste 17 Noroeste 0.4 -- -- 90
2019-06-05 07:00:00 11.7 5 Noroeste 14 Norte 0.4 -- -- 90
2019-06-05 06:00:00 11.8 9 Noroeste 24 Norte 1 -- -- 85
2019-06-05 05:00:00 12.5 4 Noroeste 23 Oeste 0.8 -- -- 87
2019-06-05 04:00:00 13.1 10 Noroeste 23 Noroeste 0.4 -- -- 78
2019-06-05 03:00:00 13.9 9 Noroeste 17 Noroeste 0.2 -- -- 75
2019-06-05 02:00:00 14.6 13 Noroeste 22 Noroeste 0 -- -- 65
2019-06-05 01:00:00 14.8 9 Noroeste 32 Norte 0 -- -- 69
2019-06-05 00:00:00 15.1 15 Norte 37 Noroeste 0 -- -- 70
2019-06-04 23:00:00 16 17 Noroeste 40 Norte 0 -- -- 73
2019-06-04 22:00:00 16.6 18 Noroeste 37 Norte 0 -- -- 72
2019-06-04 21:00:00 18.8 12 Norte 35 Norte 0 -- -- 68
2019-06-04 20:00:00 21.2 16 Norte 50 Norte 0 -- -- 63
2019-06-04 19:00:00 31.1 11 Oeste 26 Sudoeste 0 -- -- 25
2019-06-04 18:00:00 31.1 13 Sudoeste 38 Sudoeste 0 -- -- 26
2019-06-04 17:00:00 31.1 18 Sudoeste 39 Sudoeste 0 -- -- 24
2019-06-04 16:00:00 31.9 17 Sudoeste 46 Sudoeste 0 -- -- 25
2019-06-04 15:00:00 31.8 15 Sudoeste 43 Sudoeste 0 -- -- 25
2019-06-04 14:00:00 30.9 22 Sudoeste 45 Sudoeste 0 -- -- 26
2019-06-04 13:00:00 30.9 14 Sudoeste 44 Sudoeste 0 -- -- 28
2019-06-04 12:00:00 26.1 7 Nordeste 17 Este 0 -- -- 42
2019-06-04 11:00:00 22.8 5 Nordeste 14 Nordeste 0 -- -- 45
2019-06-04 10:00:00 21.2 3 Nordeste 11 Norte 0 -- -- 49
2019-06-04 09:00:00 19 5 Noroeste 14 Sudoeste 0 -- -- 56
2019-06-04 08:00:00 16.6 6 Sur 19 Sudoeste 0 -- -- 63
2019-06-04 07:00:00 15.2 10 Sudoeste 21 Oeste 0 -- -- 68
2019-06-04 06:00:00 15 4 Sudoeste 8 Sur 0 -- -- 69
2019-06-04 05:00:00 14.9 3 Noroeste 15 Sur 0 -- -- 71
2019-06-04 04:00:00 17.1 3 Oeste 19 Sudeste 0 -- -- 63
2019-06-04 03:00:00 19.1 10 Sur 19 Sur 0 -- -- 56
2019-06-04 02:00:00 19.3 10 Sudoeste 18 Sudoeste 0 -- -- 54
2019-06-04 01:00:00 19.8 0 Calma 16 Sudoeste 0 -- -- 56
2019-06-04 00:00:00 24 11 Sur 34 Sudeste 0 -- -- 45
2019-06-03 23:00:00 25.4 18 Sur 38 Sudeste 0 -- -- 44
2019-06-03 22:00:00 26.6 5 Sur 16 Sur 0 -- -- 40
2019-06-03 21:00:00 28.1 3 Este 14 Nordeste 0 -- -- 39
2019-06-03 20:00:00 28.8 5 Nordeste 21 Este 0 -- -- 33
2019-06-03 19:00:00 29.4 9 Sudeste 22 Sudeste 0 -- -- 33
2019-06-03 18:00:00 30.3 13 Sudeste 25 Este 0 -- -- 34
2019-06-03 17:00:00 29.5 7 Sudeste 23 Sudeste 0 -- -- 35
2019-06-03 16:00:00 28.5 8 Este 24 Nordeste 0 -- -- 37
2019-06-03 15:00:00 27.3 9 Este 18 Nordeste 0 -- -- 40
2019-06-03 14:00:00 25.3 7 Nordeste 17 Nordeste 0 -- -- 44
2019-06-03 13:00:00 24.5 5 Norte 13 Norte 0 -- -- 45
2019-06-03 12:00:00 23.4 3 Norte 11 Sudeste 0 -- -- 50
2019-06-03 11:00:00 21.7 6 Este -- -- -- -- -- 52
2019-06-03 10:00:00 -- -- -- -- -- -- -- -- --
2019-06-03 09:00:00 -- -- -- -- -- -- -- -- --
2019-06-03 08:00:00 -- -- -- -- -- -- -- -- --
2019-06-03 07:00:00 -- -- -- -- -- -- -- -- --
2019-06-03 06:00:00 -- -- -- -- -- -- -- -- --
2019-06-03 05:00:00 -- -- -- -- -- -- -- -- --
2019-06-03 04:00:00 -- -- -- -- -- -- -- -- --
2019-06-03 03:00:00 -- -- -- -- -- -- -- -- --
2019-06-03 02:00:00 -- -- -- -- -- -- -- -- --
2019-06-03 01:00:00 -- -- -- -- -- -- -- -- --
2019-06-03 00:00:00 -- -- -- -- -- -- -- -- --
2019-06-02 23:00:00 -- -- -- -- -- -- -- -- --
2019-06-02 22:00:00 -- -- -- -- -- -- -- -- --
2019-06-02 21:00:00 -- -- -- -- -- -- -- -- --
2019-06-02 20:00:00 29.9 4 Nordeste 19 Nordeste 0 -- -- 33
2019-06-02 19:00:00 30.7 7 Nordeste 22 Nordeste 0 -- -- 33
2019-06-02 18:00:00 32.1 12 Este 24 Este 0 -- -- 29
2019-06-02 17:00:00 31.9 13 Este 26 Este 0 -- -- 31
2019-06-02 16:00:00 31.3 9 Este 23 Este 0 -- -- 31
2019-06-02 15:00:00 30.4 10 Este 20 Sudeste 0 -- -- 32
2019-06-02 14:00:00 29.4 9 Sudeste 18 Sur 0 -- -- 33
2019-06-02 13:00:00 27.6 8 Sudeste 18 Sudeste 0 -- -- 36
2019-06-02 12:00:00 25.1 6 Sudeste 13 Sudeste 0 -- -- 41
2019-06-02 11:00:00 23.2 6 Nordeste 13 Nordeste 0 -- -- 42
2019-06-02 10:00:00 21.6 4 Este 10 Este 0 -- -- 44
2019-06-02 09:00:00 19.6 4 Sudeste 10 Sudoeste 0 -- -- 49
2019-06-02 08:00:00 16.2 3 Sudoeste 9 Sur 0 -- -- 63
2019-06-02 07:00:00 13.9 4 Sudoeste 8 Sudoeste 0 -- -- 68
2019-06-02 06:00:00 14.4 8 Oeste 12 Oeste 0 -- -- 65
2019-06-02 05:00:00 17.2 8 Sudoeste 17 Sudoeste 0 -- -- 56
2019-06-02 04:00:00 18 9 Sudoeste 18 Sudoeste 0 -- -- 54
2019-06-02 03:00:00 16 4 Oeste 9 Oeste 0 -- -- 58
2019-06-02 02:00:00 16.9 4 Oeste 9 Sudoeste 0 -- -- 56
2019-06-02 01:00:00 17.9 4 Sudoeste 14 Oeste 0 -- -- 52
2019-06-02 00:00:00 19.6 3 Norte 9 Oeste 0 -- -- 49
2019-06-01 23:00:00 21 6 Oeste 12 Oeste 0 -- -- 45
2019-06-01 22:00:00 24.4 5 Oeste 10 Sudoeste 0 -- -- 41
2019-06-01 21:00:00 29.1 2 Sudeste 13 Este 0 -- -- 28
2019-06-01 20:00:00 29.8 8 Este 20 Este 0 -- -- 27
2019-06-01 19:00:00 30.3 9 Este 23 Este 0 -- -- 28
2019-06-01 18:00:00 30.2 13 Este 27 Nordeste 0 -- -- 29
2019-06-01 17:00:00 30.1 14 Este 27 Este 0 -- -- 30
2019-06-01 16:00:00 29.9 10 Este 26 Este 0 -- -- 33
2019-06-01 15:00:00 28.9 7 Sur 23 Este 0 -- -- 34
2019-06-01 14:00:00 27.6 15 Este 26 Este 0 -- -- 38
2019-06-01 13:00:00 26.4 6 Sur 15 Este 0 -- -- 41
2019-06-01 12:00:00 24.6 7 Este 15 Este 0 -- -- 44
2019-06-01 11:00:00 22.7 6 Este 13 Sudeste 0 -- -- 50
2019-06-01 10:00:00 20.5 3 Este 11 Sudeste 0 -- -- 56
2019-06-01 09:00:00 18.4 8 Sudeste 14 Sur 0 -- -- 59
2019-06-01 08:00:00 15.4 3 Sudoeste 11 Oeste 0 -- -- 66
2019-06-01 07:00:00 12.5 6 Oeste 12 Oeste 0 -- -- 68
2019-06-01 06:00:00 12.8 4 Oeste 10 Oeste 0 -- -- 63
2019-06-01 05:00:00 13.2 9 Oeste 10 Oeste 0 -- -- 60
2019-06-01 04:00:00 14.7 0 Calma 12 Oeste 0 -- -- 55
2019-06-01 03:00:00 16.2 3 Sudoeste 18 Sudoeste 0 -- -- 53
2019-06-01 02:00:00 16.7 5 Sudoeste 19 Este 0 -- -- 52
2019-06-01 01:00:00 17.6 2 Sudoeste 10 Oeste 0 -- -- 50
2019-06-01 00:00:00 18 9 Oeste 14 Oeste 0 -- -- 50
2019-05-31 23:00:00 19 7 Oeste 13 Oeste 0 -- -- 49
2019-05-31 22:00:00 21 7 Oeste 11 Oeste 0 -- -- 48
2019-05-31 21:00:00 27.4 0 Calma 6 Nordeste 0 -- -- 32
2019-05-31 20:00:00 27.9 5 Este 12 Este 0 -- -- 26
2019-05-31 19:00:00 27.9 6 Nordeste 12 Norte 0 -- -- 26
2019-05-31 18:00:00 28 6 Nordeste 14 Este 0 -- -- 27
2019-05-31 17:00:00 27.6 6 Norte 16 Este 0 -- -- 32
2019-05-31 16:00:00 26.8 7 Nordeste 19 Nordeste 0 -- -- 35
2019-05-31 15:00:00 25.6 8 Nordeste 18 Este 0 -- -- 38
2019-05-31 14:00:00 24.4 8 Nordeste 17 Nordeste 0 -- -- 43
2019-05-31 13:00:00 23.2 8 Este 16 Este 0 -- -- 47
2019-05-31 12:00:00 21.7 6 Este 18 Nordeste 0 -- -- 51
2019-05-31 11:00:00 20 9 Nordeste 16 Este 0 -- -- 57
2019-05-31 10:00:00 18.9 8 Norte 16 Nordeste 0 -- -- 57
2019-05-31 09:00:00 17.7 6 Norte 14 Norte 0 -- -- 61
2019-05-31 08:00:00 15.1 3 Noroeste 13 Oeste 0 -- -- 72
2019-05-31 07:00:00 12.9 7 Oeste 14 Oeste 0 -- -- 76
2019-05-31 06:00:00 13.1 8 Oeste 17 Oeste 0 -- -- 72
2019-05-31 05:00:00 12.8 5 Sudoeste 10 Noroeste 0 -- -- 69
2019-05-31 04:00:00 14.1 2 Sudoeste 13 Oeste 0 -- -- 64
2019-05-31 03:00:00 15.3 6 Oeste 15 Oeste 0 -- -- 62
2019-05-31 02:00:00 16.2 8 Oeste 12 Oeste 0 -- -- 64
2019-05-31 01:00:00 17.2 9 Oeste 14 Oeste 0 -- -- 62
2019-05-31 00:00:00 17.5 5 Oeste 17 Oeste 0 -- -- 58
2019-05-30 23:00:00 20.2 4 Oeste 17 Noroeste 0 -- -- 48
2019-05-30 22:00:00 21.6 9 Noroeste 20 Norte 0 -- -- 39
2019-05-30 21:00:00 24.5 14 Noroeste 29 Norte 0 -- -- 31
2019-05-30 20:00:00 26.7 10 Norte 33 Norte 0 -- -- 27
2019-05-30 19:00:00 27.4 18 Norte 33 Norte 0 -- -- 23
2019-05-30 18:00:00 28.2 14 Norte 33 Noroeste 0 -- -- 21
2019-05-30 17:00:00 27.9 18 Noroeste 37 Noroeste 0 -- -- 25
2019-05-30 16:00:00 26.8 17 Norte 38 Noroeste 0 -- -- 30
2019-05-30 15:00:00 25.7 16 Norte 30 Noroeste 0 -- -- 32
2019-05-30 14:00:00 24.6 14 Norte 29 Norte 0 -- -- 36
2019-05-30 13:00:00 23.3 12 Norte 29 Noroeste 0 -- -- 40
2019-05-30 12:00:00 22 15 Norte 33 Norte 0 -- -- 43
2019-05-30 11:00:00 19.6 13 Norte 23 Norte 0 -- -- 49
2019-05-30 10:00:00 15.9 5 Sudeste 15 Nordeste 0 -- -- 64
2019-05-30 09:00:00 14.6 4 Este 16 Nordeste 0 -- -- 67
2019-05-30 08:00:00 14.8 8 Oeste 20 Sudoeste 0 -- -- 61
2019-05-30 07:00:00 11.7 10 Oeste 16 Oeste 0 -- -- 68
2019-05-30 06:00:00 11.3 4 Noroeste 8 Noroeste 0 -- -- 68
2019-05-30 05:00:00 12.2 3 Sudoeste 18 Oeste 0 -- -- 65
2019-05-30 04:00:00 13 10 Oeste 19 Oeste 0 -- -- 63
2019-05-30 03:00:00 13.5 12 Oeste 21 Sudoeste 0 -- -- 63
2019-05-30 02:00:00 13.1 10 Oeste 29 Oeste 0 -- -- 68
2019-05-30 01:00:00 12.9 8 Oeste 22 Oeste 0 -- -- 72
2019-05-30 00:00:00 12.9 6 Oeste 22 Noroeste 0 -- -- 72
2019-05-29 23:00:00 13 11 Noroeste 22 Noroeste 0 -- -- 66
2019-05-29 22:00:00 14.7 9 Noroeste 35 Noroeste 0 -- -- 60
2019-05-29 21:00:00 17 18 Norte 33 Norte 0 -- -- 56
2019-05-29 20:00:00 18.3 17 Norte 38 Noroeste 0 -- -- 50
2019-05-29 19:00:00 18.2 21 Noroeste 44 Noroeste 0 -- -- 50
2019-05-29 18:00:00 18.8 20 Norte 42 Norte 0 -- -- 49
2019-05-29 17:00:00 18.1 18 Noroeste 47 Noroeste 0 -- -- 50
2019-05-29 16:00:00 18.3 23 Noroeste 46 Noroeste 0 -- -- 47
2019-05-29 15:00:00 17.8 21 Noroeste 42 Noroeste 0 -- -- 50
2019-05-29 14:00:00 17.3 17 Norte 44 Norte 0 -- -- 48
2019-05-29 13:00:00 16.9 24 Norte 44 Noroeste 0 -- -- 48
2019-05-29 12:00:00 15.7 24 Norte 46 Norte 0 -- -- 55
2019-05-29 11:00:00 15 23 Norte 45 Noroeste 0 -- -- 58
2019-05-29 10:00:00 14.2 20 Norte 40 Norte 0 -- -- 65
2019-05-29 09:00:00 12.8 10 Norte 31 Noroeste 0 -- -- 69
2019-05-29 08:00:00 12.4 13 Noroeste 23 Noroeste 0 -- -- 68
2019-05-29 07:00:00 10.3 13 Noroeste 22 Oeste 0 -- -- 75
2019-05-29 06:00:00 10.7 12 Noroeste 25 Noroeste 0 -- -- 69
2019-05-29 05:00:00 10.9 13 Noroeste 26 Noroeste 0 -- -- 65
2019-05-29 04:00:00 11 12 Noroeste 24 Noroeste 0 -- -- 66
2019-05-29 03:00:00 10.5 11 Noroeste 17 Noroeste 0 -- -- 66
2019-05-29 02:00:00 10.7 10 Noroeste 20 Oeste 0 -- -- 64
2019-05-29 01:00:00 11.6 9 Oeste 28 Norte 0 -- -- 61
2019-05-29 00:00:00 12.2 15 Noroeste 38 Norte 0 -- -- 60
2019-05-28 23:00:00 12.2 16 Noroeste 30 Noroeste 0 -- -- 59
2019-05-28 22:00:00 12.9 11 Noroeste 27 Norte 0 -- -- 60
2019-05-28 21:00:00 14.3 16 Norte 38 Norte 0 -- -- 55
2019-05-28 20:00:00 14.7 22 Norte 38 Norte 0 -- -- 56
2019-05-28 19:00:00 15.7 23 Norte 54 Norte 0 -- -- 52
2019-05-28 18:00:00 16.1 27 Norte 59 Norte 0 -- -- 52
2019-05-28 17:00:00 15.3 25 Norte 48 Norte 0 -- -- 56
2019-05-28 16:00:00 16.9 22 Norte 44 Noroeste 0 -- -- 51
2019-05-28 15:00:00 16.2 19 Noroeste 42 Norte 0 -- -- 54
2019-05-28 14:00:00 15.8 23 Norte 46 Norte 0 -- -- 53
2019-05-28 13:00:00 15.5 23 Norte 45 Norte 0 -- -- 54
2019-05-28 12:00:00 16.1 24 Norte 47 Noroeste 0 -- -- 51
2019-05-28 11:00:00 15.3 23 Norte 44 Noroeste 0 -- -- 51
2019-05-28 10:00:00 14 18 Noroeste 39 Noroeste 0 -- -- 56
2019-05-28 09:00:00 13.1 15 Noroeste 33 Noroeste 0 -- -- 59
2019-05-28 08:00:00 11.9 17 Noroeste 32 Noroeste 0 -- -- 61
2019-05-28 07:00:00 10.2 13 Noroeste 27 Noroeste 0 -- -- 67
2019-05-28 06:00:00 10.4 17 Noroeste 30 Noroeste 0 -- -- 65
2019-05-28 05:00:00 11.1 13 Noroeste 24 Noroeste 0 -- -- 67
2019-05-28 04:00:00 11.7 16 Noroeste 31 Noroeste 0 -- -- 69
2019-05-28 03:00:00 11.4 13 Noroeste 27 Norte 0 -- -- 69
2019-05-28 02:00:00 11.8 14 Noroeste 27 Norte 0 -- -- 67
2019-05-28 01:00:00 12.4 13 Noroeste 27 Noroeste 0 -- -- 67
2019-05-28 00:00:00 13.1 13 Norte 41 Norte 0 -- -- 68
2019-05-27 23:00:00 14.3 19 Norte 39 Norte 0 -- -- 66
2019-05-27 22:00:00 15.4 13 Norte 41 Norte 0 -- -- 64
2019-05-27 21:00:00 17.3 23 Noroeste 42 Norte 0 -- -- 62
2019-05-27 20:00:00 19 15 Norte 45 Norte 0 -- -- 60
2019-05-27 19:00:00 20.2 19 Norte 46 Norte 0 -- -- 55
2019-05-27 18:00:00 20 24 Norte 59 Norte 0 -- -- 55
2019-05-27 17:00:00 21.4 24 Norte 46 Norte 0 -- -- 53
2019-05-27 16:00:00 20.9 25 Norte 52 Norte 0 -- -- 52
2019-05-27 15:00:00 18.9 21 Norte 42 Norte 0 -- -- 59
2019-05-27 14:00:00 19.4 18 Norte 39 Norte 0 -- -- 56
2019-05-27 13:00:00 19.2 21 Norte 42 Norte 0 -- -- 57
2019-05-27 12:00:00 18.1 18 Norte 37 Nordeste 0 -- -- 60
2019-05-27 11:00:00 17 21 Norte 38 Noroeste 0 -- -- 61
2019-05-27 10:00:00 15.7 17 Norte 31 Norte 0 -- -- 65
2019-05-27 09:00:00 13.2 12 Noroeste 33 Noroeste 0 -- -- 74
2019-05-27 08:00:00 11.1 4 Oeste 13 Oeste 0 -- -- 87
2019-05-27 07:00:00 9 4 Oeste 13 Oeste 0 -- -- 91
2019-05-27 06:00:00 9 7 Oeste 13 Oeste 0 -- -- 89
2019-05-27 05:00:00 10.6 5 Noroeste 19 Noroeste 0 -- -- 84
2019-05-27 04:00:00 10.8 4 Oeste 25 Noroeste 0 -- -- 85
2019-05-27 03:00:00 11.2 3 Oeste 24 Noroeste 0 -- -- 82
2019-05-27 02:00:00 12 12 Noroeste 26 Noroeste 0 -- -- 79
2019-05-27 01:00:00 12.4 11 Noroeste 24 Norte 0 -- -- 77
2019-05-27 00:00:00 13.4 15 Noroeste 32 Norte 0 -- -- 72